Time,TemperatureF,DewpointF,PressureIn,WindDirection,WindDirectionDegrees,WindSpeedMPH,WindSpeedGustMPH,Humidity,HourlyPrecipIn,Conditions,Clouds,dailyrainin,SolarRadiationWatts/m^2,SoftwareType,DateUTC
2013-10-08 00:14:00,52.9,48.0,29.90,NW,323,1.0,6.0,82,0.00,,,0.00,0,weatherlink.com 1.10,2013-10-08 07:14:00,
2013-10-08 00:29:00,52.9,47.0,29.90,NNE,26,0.0,4.0,81,0.00,,,0.00,0,weatherlink.com 1.10,2013-10-08 07:29:00,
2013-10-08 00:44:00,50.9,46.0,29.90,NNE,28,1.0,4.0,82,0.00,,,0.00,0,weatherlink.com 1.10,2013-10-08 07:44:00,
2013-10-08 00:59:00,50.8,47.0,29.90,NNE,17,1.0,3.0,85,0.00,,,0.00,0,weatherlink.com 1.10,2013-10-08 07:59:00,
2013-10-08 01:14:00,51.9,46.0,29.89,North,5,0.0,4.0,81,0.00,,,0.00,0,weatherlink.com 1.10,2013-10-08 08:14:00,
2013-10-08 01:29:00,53.0,48.0,29.90,NW,311,2.0,6.0,82,0.00,,,0.00,0,weatherlink.com 1.10,2013-10-08 08:29:00,
2013-10-08 01:44:00,52.7,47.0,29.90,North,9,1.0,5.0,81,0.00,,,0.00,0,weatherlink.com 1.10,2013-10-08 08:44:00,
2013-10-08 01:59:00,52.5,47.0,29.90,North,9,0.0,2.0,82,0.00,,,0.00,0,weatherlink.com 1.10,2013-10-08 08:59:00,
2013-10-08 02:14:00,53.1,47.0,29.90,NNW,346,3.0,4.0,81,0.00,,,0.00,0,weatherlink.com 1.10,2013-10-08 09:14:00,
2013-10-08 02:29:00,53.7,47.0,29.90,NW,316,0.0,4.0,79,0.00,,,0.00,0,weatherlink.com 1.10,2013-10-08 09:29:00,
2013-10-08 02:44:00,52.9,47.0,29.90,NW,316,0.0,3.0,79,0.00,,,0.00,0,weatherlink.com 1.10,2013-10-08 09:44:00,
2013-10-08 02:59:00,52.8,47.0,29.90,NNW,328,0.0,6.0,81,0.00,,,0.00,0,weatherlink.com 1.10,2013-10-08 09:59:00,
2013-10-08 03:14:00,52.8,47.0,29.90,WNW,302,1.0,5.0,80,0.00,,,0.00,0,weatherlink.com 1.10,2013-10-08 10:14:00,
2013-10-08 03:29:00,52.8,46.0,29.89,West,280,0.0,2.0,78,0.00,,,0.00,0,weatherlink.com 1.10,2013-10-08 10:29:00,
2013-10-08 03:45:00,53.4,47.0,29.90,WNW,294,0.0,3.0,78,0.00,,,0.00,0,weatherlink.com 1.10,2013-10-08 10:45:00,
2013-10-08 04:00:00,53.7,46.0,29.89,NW,315,0.0,6.0,76,0.00,,,0.00,0,weatherlink.com 1.10,2013-10-08 11:00:00,
2013-10-08 04:15:00,53.1,46.0,29.89,NW,315,0.0,1.0,77,0.00,,,0.00,0,weatherlink.com 1.10,2013-10-08 11:15:00,
2013-10-08 04:30:00,51.3,45.0,29.89,NW,315,0.0,2.0,78,0.00,,,0.00,0,weatherlink.com 1.10,2013-10-08 11:30:00,
2013-10-08 04:45:00,49.4,44.0,29.89,NNW,334,0.0,4.0,81,0.00,,,0.00,0,weatherlink.com 1.10,2013-10-08 11:45:00,
2013-10-08 05:00:00,49.6,44.0,29.89,NNW,335,0.0,3.0,82,0.00,,,0.00,0,weatherlink.com 1.10,2013-10-08 12:00:00,
2013-10-08 05:15:00,49.5,44.0,29.90,NNW,335,2.0,2.0,82,0.00,,,0.00,0,weatherlink.com 1.10,2013-10-08 12:15:00,
2013-10-08 05:30:00,49.7,44.0,29.89,NNE,28,2.0,3.0,82,0.00,,,0.00,0,weatherlink.com 1.10,2013-10-08 12:30:00,
2013-10-08 05:45:00,49.4,45.0,29.90,NNE,28,0.0,3.0,84,0.00,,,0.00,0,weatherlink.com 1.10,2013-10-08 12:45:00,
2013-10-08 06:00:00,51.9,46.0,29.90,NNE,28,1.0,2.0,79,0.00,,,0.00,0,weatherlink.com 1.10,2013-10-08 13:00:00,
2013-10-08 06:15:00,50.1,44.0,29.89,NNE,29,4.0,4.0,80,0.00,,,0.00,0,weatherlink.com 1.10,2013-10-08 13:15:00,
2013-10-08 06:30:00,48.7,44.0,29.90,NNE,28,4.0,7.0,85,0.00,,,0.00,0,weatherlink.com 1.10,2013-10-08 13:30:00,
2013-10-08 06:45:00,50.6,46.0,29.90,NNE,31,1.0,5.0,83,0.00,,,0.00,0,weatherlink.com 1.10,2013-10-08 13:45:00,
2013-10-08 07:00:00,51.3,45.0,29.90,NNW,338,0.0,2.0,80,0.00,,,0.00,0,weatherlink.com 1.10,2013-10-08 14:00:00,
2013-10-08 07:15:00,51.2,46.0,29.91,NW,317,0.0,5.0,81,0.00,,,0.00,0,weatherlink.com 1.10,2013-10-08 14:15:00,
2013-10-08 07:30:00,51.2,45.0,29.91,NNW,348,0.0,2.0,80,0.00,,,0.00,12,weatherlink.com 1.10,2013-10-08 14:30:00,
2013-10-08 07:45:00,50.8,45.0,29.91,NNW,344,0.0,2.0,81,0.00,,,0.00,23,weatherlink.com 1.10,2013-10-08 14:45:00,
2013-10-08 08:00:00,51.3,45.0,29.91,North,355,1.0,3.0,80,0.00,,,0.00,35,weatherlink.com 1.10,2013-10-08 15:00:00,
2013-10-08 08:15:00,52.4,46.0,29.91,North,360,0.0,3.0,79,0.00,,,0.00,158,weatherlink.com 1.10,2013-10-08 15:15:00,
2013-10-08 08:30:00,53.7,47.0,29.91,North,360,0.0,1.0,78,0.00,,,0.00,260,weatherlink.com 1.10,2013-10-08 15:30:00,
2013-10-08 08:45:00,55.3,48.0,29.91,North,360,0.0,1.0,76,0.00,,,0.00,232,weatherlink.com 1.10,2013-10-08 15:45:00,
2013-10-08 09:00:00,54.6,48.0,29.91,West,273,1.0,5.0,77,0.00,,,0.00,200,weatherlink.com 1.10,2013-10-08 16:00:00,
2013-10-08 09:15:00,54.1,48.0,29.91,SW,233,1.0,4.0,80,0.00,,,0.00,192,weatherlink.com 1.10,2013-10-08 16:15:00,
2013-10-08 09:30:00,54.9,49.0,29.91,WSW,252,1.0,4.0,79,0.00,,,0.00,199,weatherlink.com 1.10,2013-10-08 16:30:00,
2013-10-08 10:00:00,57.0,48.0,29.91,SW,236,2.0,4.0,73,0.00,,,0.00,403,weatherlink.com 1.10,2013-10-08 17:00:00,
2013-10-08 10:15:00,58.0,49.0,29.91,SW,227,0.0,4.0,71,0.00,,,0.00,369,weatherlink.com 1.10,2013-10-08 17:15:00,
2013-10-08 10:30:00,56.9,48.0,29.91,SW,225,4.0,11.0,73,0.00,,,0.00,362,weatherlink.com 1.10,2013-10-08 17:30:00,
2013-10-08 10:45:00,58.0,48.0,29.90,West,260,6.0,11.0,70,0.00,,,0.00,461,weatherlink.com 1.10,2013-10-08 17:45:00,
2013-10-08 11:00:00,57.5,48.0,29.90,West,281,3.0,10.0,71,0.00,,,0.00,390,weatherlink.com 1.10,2013-10-08 18:00:00,
2013-10-08 11:15:00,57.9,49.0,29.90,West,275,4.0,10.0,71,0.00,,,0.00,647,weatherlink.com 1.10,2013-10-08 18:15:00,
2013-10-08 11:30:00,57.8,48.0,29.90,WNW,295,3.0,14.0,71,0.00,,,0.00,664,weatherlink.com 1.10,2013-10-08 18:30:00,
2013-10-08 11:46:00,57.2,48.0,29.89,WNW,290,4.0,13.0,72,0.00,,,0.00,684,weatherlink.com 1.10,2013-10-08 18:46:00,
2013-10-08 12:01:00,58.3,49.0,29.89,West,268,3.0,10.0,70,0.00,,,0.00,700,weatherlink.com 1.10,2013-10-08 19:01:00,
2013-10-08 12:16:00,59.6,49.0,29.88,SW,227,4.0,15.0,68,0.00,,,0.00,710,weatherlink.com 1.10,2013-10-08 19:16:00,
2013-10-08 12:31:00,59.8,49.0,29.87,WSW,254,3.0,13.0,67,0.00,,,0.00,719,weatherlink.com 1.10,2013-10-08 19:31:00,
2013-10-08 12:52:00,59.6,49.0,29.87,NW,326,2.0,13.0,67,0.00,,,0.00,728,weatherlink.com 1.10,2013-10-08 19:52:00,
2013-10-08 13:01:00,58.3,48.0,29.86,WSW,248,8.0,13.0,69,0.00,,,0.00,724,weatherlink.com 1.10,2013-10-08 20:01:00,
2013-10-08 13:16:00,57.6,48.0,29.85,WNW,285,5.0,17.0,71,0.00,,,0.00,721,weatherlink.com 1.10,2013-10-08 20:16:00,
2013-10-08 13:32:00,57.8,48.0,29.85,NNW,327,7.0,17.0,71,0.00,,,0.00,714,weatherlink.com 1.10,2013-10-08 20:32:00,
2013-10-08 13:46:00,58.7,48.0,29.84,West,276,15.0,17.0,68,0.00,,,0.00,703,weatherlink.com 1.10,2013-10-08 20:46:00,
2013-10-08 14:01:00,58.2,48.0,29.83,NW,308,10.0,18.0,69,0.00,,,0.00,696,weatherlink.com 1.10,2013-10-08 21:01:00,
2013-10-08 14:16:00,59.0,48.0,29.83,WNW,294,6.0,19.0,67,0.00,,,0.00,700,weatherlink.com 1.10,2013-10-08 21:16:00,
2013-10-08 14:31:00,59.4,48.0,29.82,WNW,300,7.0,14.0,65,0.00,,,0.00,680,weatherlink.com 1.10,2013-10-08 21:31:00,
2013-10-08 14:45:00,61.0,47.0,29.81,WSW,248,8.0,16.0,61,0.00,,,0.00,643,weatherlink.com 1.10,2013-10-08 21:45:00,
2013-10-08 15:01:00,59.3,48.0,29.81,WNW,283,9.0,20.0,67,0.00,,,0.00,585,weatherlink.com 1.10,2013-10-08 22:01:00,
2013-10-08 15:16:00,59.9,48.0,29.80,NW,325,5.0,18.0,65,0.00,,,0.00,577,weatherlink.com 1.10,2013-10-08 22:16:00,
2013-10-08 15:31:00,61.6,48.0,29.81,WNW,294,8.0,18.0,61,0.00,,,0.00,538,weatherlink.com 1.10,2013-10-08 22:31:00,
2013-10-08 16:16:00,64.4,48.0,29.79,WNW,286,4.0,17.0,55,0.00,,,0.00,285,weatherlink.com 1.10,2013-10-08 23:16:00,
2013-10-08 16:31:00,63.2,48.0,29.80,West,277,12.0,21.0,57,0.00,,,0.00,276,weatherlink.com 1.10,2013-10-08 23:31:00,
2013-10-08 16:46:00,61.0,48.0,29.80,West,259,11.0,18.0,62,0.00,,,0.00,188,weatherlink.com 1.10,2013-10-08 23:46:00,
2013-10-08 17:01:00,60.8,48.0,29.80,West,275,13.0,17.0,63,0.00,,,0.00,197,weatherlink.com 1.10,2013-10-09 00:01:00,
2013-10-08 17:16:00,59.1,48.0,29.80,WSW,238,7.0,15.0,66,0.00,,,0.00,118,weatherlink.com 1.10,2013-10-09 00:16:00,
2013-10-08 17:31:00,57.7,48.0,29.80,WNW,300,8.0,15.0,69,0.00,,,0.00,90,weatherlink.com 1.10,2013-10-09 00:31:00,
2013-10-08 17:46:00,58.0,48.0,29.80,WNW,286,3.0,10.0,69,0.00,,,0.00,62,weatherlink.com 1.10,2013-10-09 00:46:00,
2013-10-08 18:01:00,57.6,47.0,29.80,WNW,301,5.0,8.0,69,0.00,,,0.00,32,weatherlink.com 1.10,2013-10-09 01:01:00,
2013-10-08 18:16:00,57.0,48.0,29.80,WNW,290,3.0,5.0,71,0.00,,,0.00,26,weatherlink.com 1.10,2013-10-09 01:16:00,
2013-10-08 18:31:00,56.6,47.0,29.80,WNW,288,3.0,5.0,71,0.00,,,0.00,16,weatherlink.com 1.10,2013-10-09 01:31:00,
2013-10-08 18:46:00,56.2,47.0,29.79,West,273,3.0,5.0,72,0.00,,,0.00,0,weatherlink.com 1.10,2013-10-09 01:46:00,
2013-10-08 19:16:00,55.2,47.0,29.79,WNW,302,0.0,4.0,73,0.00,,,0.00,0,weatherlink.com 1.10,2013-10-09 02:16:00,
2013-10-08 19:31:00,54.8,46.0,29.80,WNW,300,0.0,4.0,73,0.00,,,0.00,0,weatherlink.com 1.10,2013-10-09 02:31:00,
2013-10-08 19:46:00,54.8,46.0,29.79,WNW,294,0.0,4.0,72,0.00,,,0.00,0,weatherlink.com 1.10,2013-10-09 02:46:00,
2013-10-08 20:01:00,54.1,46.0,29.79,NNW,346,0.0,7.0,75,0.00,,,0.00,0,weatherlink.com 1.10,2013-10-09 03:01:00,
2013-10-08 20:16:00,53.1,45.0,29.79,NNE,20,1.0,3.0,74,0.00,,,0.00,0,weatherlink.com 1.10,2013-10-09 03:16:00,
2013-10-08 20:31:00,51.8,45.0,29.79,NE,37,0.0,4.0,77,0.00,,,0.00,0,weatherlink.com 1.10,2013-10-09 03:31:00,
2013-10-08 20:46:00,51.3,45.0,29.78,NNE,23,2.0,3.0,80,0.00,,,0.00,0,weatherlink.com 1.10,2013-10-09 03:46:00,
2013-10-08 21:01:00,53.2,47.0,29.79,NW,307,1.0,4.0,78,0.00,,,0.00,0,weatherlink.com 1.10,2013-10-09 04:01:00,
2013-10-08 21:17:00,53.5,47.0,29.79,WNW,295,1.0,10.0,78,0.00,,,0.00,0,weatherlink.com 1.10,2013-10-09 04:17:00,
2013-10-08 21:32:00,53.4,46.0,29.79,NW,305,5.0,6.0,77,0.00,,,0.00,0,weatherlink.com 1.10,2013-10-09 04:32:00,
2013-10-08 21:47:00,53.9,47.0,29.79,NNW,327,5.0,11.0,76,0.00,,,0.00,0,weatherlink.com 1.10,2013-10-09 04:47:00,
2013-10-08 22:02:00,54.4,47.0,29.79,NW,319,5.0,9.0,75,0.00,,,0.00,0,weatherlink.com 1.10,2013-10-09 05:02:00,
2013-10-08 22:17:00,54.8,46.0,29.79,NW,307,3.0,9.0,73,0.00,,,0.00,0,weatherlink.com 1.10,2013-10-09 05:17:00,
2013-10-08 22:32:00,54.4,46.0,29.77,West,278,6.0,9.0,74,0.00,,,0.00,0,weatherlink.com 1.10,2013-10-09 05:32:00,
2013-10-08 22:47:00,54.4,46.0,29.77,NW,304,2.0,12.0,74,0.00,,,0.00,0,weatherlink.com 1.10,2013-10-09 05:47:00,
2013-10-08 23:02:00,54.2,46.0,29.77,SW,226,0.0,6.0,73,0.00,,,0.00,0,weatherlink.com 1.10,2013-10-09 06:02:00,
2013-10-08 23:17:00,52.4,45.0,29.77,SW,226,0.0,2.0,75,0.00,,,0.00,0,weatherlink.com 1.10,2013-10-09 06:17:00,
2013-10-08 23:32:00,51.0,45.0,29.76,West,275,1.0,4.0,79,0.00,,,0.00,0,weatherlink.com 1.10,2013-10-09 06:32:00,
2013-10-08 23:47:00,53.6,46.0,29.76,WNW,298,5.0,9.0,76,0.00,,,0.00,0,weatherlink.com 1.10,2013-10-09 06:47:00,